Wetterdaten: Mittwoch, 31.10.2018
Datum Zeit Temp. Aussen Temp. o. S. +5cm Feuchte Auss Luftdruck Regen Sonnenschein Regendauer Solar Windben Empfang
01.10.2018 12:00 10,3 C 10,0 C 9,2 C 84 % 1016,3 hPa 1,6 l/m 4 min 1 min 190 W/m 12,1 km/h (2 Bft) 97,44 %
02.10.2018 12:00 10,2 C 9,6 C 9,3 C 90 % 1016,7 hPa 0,4 l/m 2 min 3 min 85 W/m 9,0 km/h (2 Bft) 96,80 %
03.10.2018 12:00 12,5 C 12,4 C 11,1 C 83 % 1021,9 hPa 0,0 l/m 5 min 0 min 192 W/m 6,0 km/h (2 Bft) 97,48 %
04.10.2018 12:00 12,2 C 12,0 C 11,0 C 86 % 1024,1 hPa 0,0 l/m 3 min 0 min 165 W/m 5,6 km/h (1 Bft) 97,57 %
05.10.2018 12:00 14,3 C 14,5 C 12,0 C 79 % 1016,3 hPa 0,0 l/m 5 min 0 min 214 W/m 9,1 km/h (2 Bft) 97,22 %
06.10.2018 12:00 16,4 C 16,5 C 13,9 C 79 % 1007,2 hPa 0,0 l/m 4 min 0 min 178 W/m 7,2 km/h (2 Bft) 97,50 %
07.10.2018 12:00 12,9 C 12,5 C 11,4 C 79 % 1015,4 hPa 2,0 l/m 5 min 1 min 204 W/m 10,7 km/h (2 Bft) 97,28 %
08.10.2018 12:00 9,7 C 10,0 C 8,1 C 81 % 1019,8 hPa 0,0 l/m 5 min 0 min 192 W/m 2,2 km/h (1 Bft) 97,62 %
09.10.2018 12:00 11,5 C 11,6 C 9,5 C 87 % 1019,3 hPa 0,0 l/m 5 min 0 min 186 W/m 2,6 km/h (1 Bft) 97,57 %
10.10.2018 12:00 15,7 C 16,0 C 12,6 C 81 % 1014,9 hPa 0,0 l/m 4 min 0 min 183 W/m 4,8 km/h (1 Bft) 97,56 %
11.10.2018 12:00 17,6 C 17,5 C 15,1 C 78 % 1010,3 hPa 0,0 l/m 2 min 0 min 133 W/m 11,5 km/h (2 Bft) 97,47 %
12.10.2018 12:00 19,4 C 19,4 C 16,9 C 76 % 1015,9 hPa 0,0 l/m 4 min 0 min 159 W/m 10,8 km/h (2 Bft) 97,47 %
13.10.2018 12:00 20,8 C 20,7 C 18,0 C 71 % 1015,9 hPa 0,0 l/m 4 min 0 min 165 W/m 13,6 km/h (3 Bft) 97,49 %
14.10.2018 12:00 19,9 C 19,8 C 17,4 C 68 % 1008,1 hPa 0,0 l/m 4 min 0 min 175 W/m 13,5 km/h (3 Bft) 97,57 %
15.10.2018 12:00 18,9 C 18,1 C 15,7 C 68 % 1010,2 hPa 0,0 l/m 4 min 0 min 173 W/m 7,6 km/h (2 Bft) 97,48 %
16.10.2018 12:00 15,9 C 15,9 C 13,4 C 77 % 1015,8 hPa 0,0 l/m 4 min 0 min 183 W/m 2,7 km/h (1 Bft) 97,69 %
17.10.2018 12:00 16,3 C 16,3 C 14,4 C 81 % 1016,8 hPa 0,0 l/m 4 min 0 min 164 W/m 4,8 km/h (1 Bft) 97,49 %
18.10.2018 12:00 14,4 C 14,1 C 13,4 C 89 % 1020,9 hPa 0,0 l/m 2 min 0 min 132 W/m 9,2 km/h (2 Bft) 97,65 %
19.10.2018 12:00 13,0 C 12,5 C 11,9 C 85 % 1022,5 hPa 0,0 l/m 2 min 0 min 138 W/m 6,4 km/h (2 Bft) 97,34 %
20.10.2018 12:00 8,8 C 8,7 C 7,7 C 85 % 1027,8 hPa 0,0 l/m 5 min 0 min 151 W/m 2,6 km/h (1 Bft) 97,54 %
21.10.2018 12:00 8,7 C 8,9 C 7,2 C 83 % 1026,5 hPa 0,0 l/m 4 min 0 min 152 W/m 4,1 km/h (1 Bft) 97,51 %
22.10.2018 12:00 10,4 C 9,9 C 9,3 C 84 % 1028,1 hPa 0,6 l/m 2 min 0 min 119 W/m 5,8 km/h (2 Bft) 97,48 %
23.10.2018 12:00 9,8 C 9,4 C 9,0 C 86 % 1024,0 hPa 0,0 l/m 1 min 0 min 101 W/m 12,0 km/h (2 Bft) 97,45 %
24.10.2018 12:00 13,8 C 13,1 C 12,6 C 92 % 1021,1 hPa 1,4 l/m 1 min 2 min 96 W/m 15,7 km/h (3 Bft) 97,52 %
25.10.2018 12:00 12,4 C 11,8 C 11,5 C 89 % 1017,2 hPa 0,0 l/m 0 min 0 min 70 W/m 7,6 km/h (2 Bft) 97,25 %
26.10.2018 12:00 10,1 C 9,4 C 9,3 C 87 % 1007,1 hPa 0,8 l/m 0 min 2 min 70 W/m 9,6 km/h (2 Bft) 97,57 %
27.10.2018 12:00 6,8 C 6,5 C 6,0 C 90 % 1006,3 hPa 1,0 l/m 2 min 2 min 126 W/m 5,3 km/h (1 Bft) 97,37 %
28.10.2018 12:00 4,7 C 4,3 C 4,0 C 86 % 1012,2 hPa 0,2 l/m 3 min 0 min 142 W/m 15,9 km/h (3 Bft) 97,15 %
_ Min-Zeit 07:52 07:28 07:18 13:40 01:00 - - - - 07:04 11:02
Minimum _ 4,1 C 3,3 C 3,3 C 77 % 1004,4 hPa - - - - 0,0 km/h (0 Bft) 57,45 %
_ Max-Zeit 13:32 11:04 12:58 09:02 10:58 18:16 11:40 18:08 12:00 02:18 03:12
Maximum _ 10,7 C 13,3 C 8,9 C 94 % 1012,8 hPa 0,2 l/m 2 min 4 min 384 W/m 25,7 km/h
S (4 Bft)
100,00 %
Durchschnitt _ 7,8 C 7,5 C 6,4 C 87 % 1010,2 hPa #1,6 l/m #2:34 h #0 min. 0 W/m 11,3 km/h (2 Bft) 97,37 %
© 2018 W. Hausmann